Time;durP1;ratioP1;P1;durP2;ratioP2;P2;SDS_P1;SDS_P2;PMS_P1;PMS_P2;Temp;Humidity;BMP_temperature;BMP_pressure;BME280_temperature;BME280_humidity;BME280_pressure;Samples;Min_cycle;Max_cycle;Signal;HPM_P1;HPM_P2
2023/01/15 00:01:22;;;;;;;1.30;0.77;;;;;;;10.10;83.53;99284.63;4157792;28;20522;-68
2023/01/15 00:03:24;;;;;;;1.40;0.90;;;;;;;10.09;83.43;99290.69;4158337;28;20060;-68
2023/01/15 00:05:27;;;;;;;2.85;1.48;;;;;;;10.10;83.72;99276.84;4163761;28;20063;-69
2023/01/15 00:07:31;;;;;;;2.53;1.15;;;;;;;10.12;82.94;99274.22;4163157;28;20029;-68
2023/01/15 00:09:34;;;;;;;2.05;1.35;;;;;;;10.09;83.39;99274.22;4161712;28;20041;-69
2023/01/15 00:11:36;;;;;;;1.55;1.00;;;;;;;10.12;83.09;99275.09;4162392;28;20041;-68
2023/01/15 00:13:41;;;;;;;1.67;1.00;;;;;;;10.13;83.04;99276.81;4161379;28;20037;-68
2023/01/15 00:15:43;;;;;;;1.10;1.00;;;;;;;10.18;83.40;99260.34;4162211;28;20042;-69
2023/01/15 00:17:46;;;;;;;1.65;0.90;;;;;;;10.13;82.95;99266.44;4162586;28;20037;-69
2023/01/15 00:19:49;;;;;;;1.95;1.02;;;;;;;10.09;84.00;99262.09;4159601;28;20041;-68
2023/01/15 00:21:52;;;;;;;2.30;0.85;;;;;;;10.12;83.49;99254.31;4161275;28;20041;-69
2023/01/15 00:28:37;;;;;;;1.92;1.30;;;;;;;10.21;83.50;99222.25;4157179;28;20041;-69
2023/01/15 00:30:42;;;;;;;3.92;1.30;;;;;;;10.12;83.68;99233.53;4161688;28;20099;-68
2023/01/15 00:32:45;;;;;;;4.60;1.00;;;;;;;10.17;83.45;99235.25;4163118;28;20557;-68
2023/01/15 00:34:48;;;;;;;5.55;3.15;;;;;;;10.24;83.43;99231.75;4159224;28;20270;-68
2023/01/15 00:36:50;;;;;;;12.43;6.93;;;;;;;10.29;82.64;99225.69;4141898;28;20408;-68
2023/01/15 00:38:53;;;;;;;5.40;2.92;;;;;;;10.34;82.35;99223.09;4177063;28;20037;-69
2023/01/15 00:40:56;;;;;;;8.85;4.22;;;;;;;10.29;82.60;99220.50;4176591;28;20033;-68
2023/01/15 00:42:59;;;;;;;8.60;5.25;;;;;;;10.30;83.20;99211.81;4160723;28;20508;-68
2023/01/15 00:45:08;;;;;;;20.60;15.25;;;;;;;10.18;82.97;99213.59;4161111;28;20573;-68
2023/01/15 00:47:14;;;;;;;8.32;4.43;;;;;;;10.15;83.69;99217.09;4161268;28;20048;-69
2023/01/15 00:49:16;;;;;;;;;;;;;;;10.22;83.29;99212.72;4161051;28;20168;-69
2023/01/15 00:51:19;;;;;;;3.00;1.08;;;;;;;10.15;83.29;99217.09;4161086;28;20275;-68
2023/01/15 00:53:22;;;;;;;2.45;0.88;;;;;;;10.24;82.93;99206.63;4160196;28;20087;-69
2023/01/15 00:55:25;;;;;;;1.88;0.95;;;;;;;10.23;83.32;99210.09;4161463;28;20033;-69
2023/01/15 00:57:28;;;;;;;1.55;0.90;;;;;;;10.22;83.56;99197.13;4161547;28;20037;-69
2023/01/15 00:59:31;;;;;;;2.72;0.90;;;;;;;10.19;84.05;99212.72;4143057;28;20045;-69
2023/01/15 01:01:34;;;;;;;1.13;0.95;;;;;;;10.19;83.53;99191.94;4160408;28;20499;-69
2023/01/15 01:03:38;;;;;;;1.33;0.80;;;;;;;10.20;83.82;99196.28;4143608;28;20108;-69
2023/01/15 01:05:41;;;;;;;1.65;0.88;;;;;;;10.31;83.57;99191.91;4176870;28;20116;-69
2023/01/15 01:07:44;;;;;;;2.15;1.13;;;;;;;10.21;83.88;99200.63;4160989;28;20049;-68
2023/01/15 01:09:47;;;;;;;2.60;1.45;;;;;;;10.23;83.29;99198.84;4160286;28;20601;-68
2023/01/15 01:11:50;;;;;;;0.90;0.75;;;;;;;10.31;83.47;99216.13;4176644;28;20431;-69
2023/01/15 01:13:53;;;;;;;2.22;0.95;;;;;;;10.26;82.98;99202.28;4160885;28;20052;-68
2023/01/15 01:15:56;;;;;;;0.95;0.60;;;;;;;10.18;83.85;99200.59;4159840;28;20124;-69
2023/01/15 01:18:01;;;;;;;1.60;0.93;;;;;;;10.21;84.17;99190.22;4160552;28;20515;-68
2023/01/15 01:20:07;;;;;;;1.17;0.93;;;;;;;10.34;83.50;99189.31;4160549;28;20491;-69
2023/01/15 01:22:09;;;;;;;0.70;0.70;;;;;;;10.25;83.85;99189.31;4156767;28;20315;-68
2023/01/15 01:24:14;;;;;;;2.08;0.90;;;;;;;10.21;84.10;99185.03;4160485;28;20154;-69
2023/01/15 01:26:18;;;;;;;4.55;0.75;;;;;;;10.20;84.25;99183.28;4162946;28;20115;-68
2023/01/15 01:28:21;;;;;;;0.65;0.60;;;;;;;10.21;83.51;99185.03;4159899;28;20041;-69
2023/01/15 01:30:24;;;;;;;0.85;0.70;;;;;;;10.29;83.71;99183.25;4159243;28;20041;-69
2023/01/15 01:32:27;;;;;;;2.22;0.90;;;;;;;10.33;83.74;99178.91;4157576;28;20128;-68
2023/01/15 01:34:32;;;;;;;0.75;0.63;;;;;;;10.24;83.96;99179.81;4161299;28;20041;-69
2023/01/15 01:36:38;;;;;;;1.92;0.80;;;;;;;10.20;83.96;99180.69;4163732;28;20044;-68
2023/01/15 01:38:40;;;;;;;1.92;1.40;;;;;;;10.24;83.67;99179.81;4162294;28;20037;-69
2023/01/15 01:40:43;;;;;;;1.05;0.50;;;;;;;10.23;84.50;99170.28;4163749;28;20046;-69
2023/01/15 01:42:47;;;;;;;0.68;0.57;;;;;;;10.27;83.81;99187.59;4163838;28;20045;-68
2023/01/15 01:45:01;;;;;;;0.88;0.75;;;;;;;10.41;83.33;99178.03;4164128;28;20454;-69
2023/01/15 01:47:06;;;;;;;1.98;0.50;;;;;;;10.38;83.13;99178.03;4148030;28;20042;-68
2023/01/15 01:49:12;;;;;;;2.10;1.33;;;;;;;10.35;83.49;99185.81;4162483;28;20038;-69
2023/01/15 01:51:16;;;;;;;0.98;0.60;;;;;;;10.37;83.84;99183.25;4163664;28;20438;-69
2023/01/15 01:53:25;;;;;;;0.40;0.40;;;;;;;10.34;83.85;99181.53;4163856;28;20037;-68
2023/01/15 01:55:30;;;;;;;1.40;0.80;;;;;;;10.34;84.42;99180.63;4163237;28;20041;-68
2023/01/15 01:57:33;;;;;;;1.58;0.60;;;;;;;10.40;84.26;99175.44;4164042;28;20037;-68
2023/01/15 01:59:38;;;;;;;2.03;0.63;;;;;;;10.39;84.13;99184.94;4163003;28;20068;-69
2023/01/15 02:01:40;;;;;;;1.15;0.70;;;;;;;10.29;84.12;99185.84;4165252;28;20111;-68
2023/01/15 02:03:45;;;;;;;0.57;0.43;;;;;;;10.22;84.96;99171.16;4163603;28;20056;-68
2023/01/15 02:05:52;;;;;;;1.20;0.52;;;;;;;10.14;84.89;99174.66;4179032;28;20040;-69
2023/01/15 02:07:55;;;;;;;0.80;0.50;;;;;;;10.24;85.05;99180.66;4160964;28;20451;-69
2023/01/15 02:10:00;;;;;;;1.08;0.50;;;;;;;10.26;84.48;99163.31;4163334;28;20042;-68
2023/01/15 02:12:17;;;;;;;0.52;0.50;;;;;;;10.30;84.32;99167.63;4165218;28;20033;-69
2023/01/15 02:14:26;;;;;;;1.60;0.57;;;;;;;10.33;84.81;99165.91;4163981;28;20033;-69
2023/01/15 02:16:36;;;;;;;1.98;0.52;;;;;;;10.29;84.57;99162.47;4165241;28;20125;-69
2023/01/15 02:18:46;;;;;;;2.28;0.60;;;;;;;10.19;85.52;99158.19;4163121;28;20577;-69
2023/01/15 02:20:55;;;;;;;2.38;0.82;;;;;;;10.20;84.94;99159.91;4146593;28;20045;-69
2023/01/15 02:23:10;;;;;;;0.90;0.50;;;;;;;10.24;85.37;99153.84;4163899;28;20041;-69
2023/01/15 02:25:24;;;;;;;1.55;0.60;;;;;;;10.29;85.38;99165.06;4163009;28;20038;-69
2023/01/15 02:27:29;;;;;;;1.95;0.50;;;;;;;10.18;85.32;99169.44;4162223;28;20116;-69
2023/01/15 02:29:39;;;;;;;0.82;0.60;;;;;;;10.20;85.64;99167.72;4162369;28;21311;-69
2023/01/15 02:31:48;;;;;;;1.42;0.50;;;;;;;10.20;85.52;99171.16;4162944;28;20048;-69
2023/01/15 02:33:56;;;;;;;0.55;0.50;;;;;;;10.12;85.90;99176.41;4162174;28;20040;-71
2023/01/15 02:36:00;;;;;;;0.40;0.40;;;;;;;10.08;86.69;99174.69;4162905;28;20063;-70
2023/01/15 02:38:10;;;;;;;0.50;0.50;;;;;;;10.14;86.47;99179.84;4146488;28;20125;-70
2023/01/15 02:40:15;;;;;;;1.23;0.65;;;;;;;10.13;86.35;99170.34;4161984;28;20132;-69
2023/01/15 02:42:20;;;;;;;1.40;0.90;;;;;;;10.21;86.14;99174.63;4163291;28;20048;-70
2023/01/15 02:44:26;;;;;;;1.20;0.63;;;;;;;10.17;85.70;99178.97;4159052;28;20038;-70
2023/01/15 02:46:35;;;;;;;0.40;0.40;;;;;;;10.10;86.60;99183.34;4162105;28;20532;-70
2023/01/15 02:48:46;;;;;;;4.20;0.80;;;;;;;10.10;87.08;99183.34;4162729;28;20107;-70
2023/01/15 02:50:52;;;;;;;2.10;0.60;;;;;;;10.06;87.23;99181.63;4146290;28;20042;-70
2023/01/15 02:53:02;;;;;;;1.83;1.00;;;;;;;10.10;86.96;99191.13;4145910;28;20045;-70
2023/01/15 02:55:12;;;;;;;2.13;0.70;;;;;;;9.96;87.83;99200.72;4161274;28;20064;-70
2023/01/15 02:57:22;;;;;;;1.33;0.73;;;;;;;9.96;87.83;99195.53;4162112;28;20029;-70
2023/01/15 02:59:36;;;;;;;1.45;0.60;;;;;;;9.92;87.33;99217.16;4162520;28;20122;-72
2023/01/15 03:01:44;;;;;;;2.55;0.70;;;;;;;9.93;87.57;99224.09;4160802;28;20068;-71
2023/01/15 03:03:55;;;;;;;1.15;0.55;;;;;;;10.33;85.83;99234.31;4178363;28;20049;-71
2023/01/15 03:06:04;;;;;;;0.70;0.50;;;;;;;10.26;83.29;99240.41;4160330;28;20427;-71
2023/01/15 03:08:08;;;;;;;0.75;0.20;;;;;;;10.09;81.97;99243.06;4163087;28;20093;-70
2023/01/15 03:10:13;;;;;;;0.45;0.30;;;;;;;9.90;78.98;99252.63;4163066;28;20038;-70
2023/01/15 03:12:22;;;;;;;0.75;0.30;;;;;;;9.70;80.12;99252.69;4146538;28;20042;-69
2023/01/15 03:14:32;;;;;;;0.17;0.17;;;;;;;9.67;79.50;99257.91;4162175;28;20081;-70
2023/01/15 03:16:37;;;;;;;0.20;0.20;;;;;;;9.80;77.58;99246.63;4162343;28;21308;-70
2023/01/15 03:18:48;;;;;;;1.30;0.40;;;;;;;9.66;77.44;99249.22;4162829;28;20041;-70
2023/01/15 03:20:56;;;;;;;2.17;0.28;;;;;;;9.58;77.37;99251.00;4141407;28;20068;-69
2023/01/15 03:23:07;;;;;;;1.25;0.40;;;;;;;9.56;77.20;99257.88;4162887;28;20488;-69
2023/01/15 03:25:19;;;;;;;0.35;0.28;;;;;;;9.38;78.12;99262.22;4162658;28;20042;-69
2023/01/15 03:27:25;;;;;;;1.65;0.13;;;;;;;9.36;78.30;99258.78;4162711;28;20111;-69
2023/01/15 03:29:34;;;;;;;0.28;0.22;;;;;;;9.35;78.28;99264.81;4164081;28;20041;-70
2023/01/15 03:31:40;;;;;;;0.30;0.30;;;;;;;9.34;78.05;99252.72;4178288;28;20484;-67
2023/01/15 03:33:43;;;;;;;0.30;0.20;;;;;;;9.36;78.09;99256.19;4161319;28;20041;-67
2023/01/15 03:35:54;;;;;;;0.30;0.30;;;;;;;9.31;77.99;99268.28;4162638;28;20450;-68
2023/01/15 03:38:06;;;;;;;0.10;0.10;;;;;;;9.19;78.62;99263.09;4144622;28;20041;-67
2023/01/15 03:40:11;;;;;;;0.22;0.22;;;;;;;9.33;78.20;99263.09;4145548;28;20073;-67
2023/01/15 03:42:25;;;;;;;0.85;0.38;;;;;;;9.23;78.63;99259.66;4163083;28;20544;-67
2023/01/15 03:44:37;;;;;;;0.30;0.30;;;;;;;9.23;78.13;99255.31;4173625;28;20483;-68
2023/01/15 03:46:53;;;;;;;0.10;0.10;;;;;;;9.09;78.52;99257.88;4162125;28;20092;-69
2023/01/15 03:49:01;;;;;;;;;;;;;;;9.14;78.18;99257.03;4144715;28;20042;-69
2023/01/15 03:51:12;;;;;;;0.75;0.75;;;;;;;9.11;78.53;99244.94;4162424;28;19925;-68
2023/01/15 03:53:20;;;;;;;0.20;0.20;;;;;;;9.22;78.05;99242.34;4161075;28;20033;-68
2023/01/15 03:55:36;;;;;;;0.30;0.30;;;;;;;9.09;78.59;99255.28;4162176;28;20076;-68
2023/01/15 03:57:48;;;;;;;0.30;0.30;;;;;;;9.17;79.19;99244.06;4159804;28;20046;-68
2023/01/15 03:59:54;;;;;;;0.30;0.30;;;;;;;9.21;78.68;99256.19;4173103;28;20040;-68
2023/01/15 04:02:01;;;;;;;0.30;0.30;;;;;;;9.09;78.84;99257.88;4161596;28;20037;-68
2023/01/15 04:04:05;;;;;;;0.20;0.20;;;;;;;9.07;79.12;99266.56;4160563;28;20056;-69
2023/01/15 04:06:10;;;;;;;0.20;0.20;;;;;;;9.15;79.39;99272.59;4145765;28;20053;-68
2023/01/15 04:08:14;;;;;;;0.25;0.25;;;;;;;9.23;78.86;99263.09;4162962;28;20030;-68
2023/01/15 04:10:21;;;;;;;0.45;0.40;;;;;;;9.26;78.31;99270.03;4159145;28;20040;-69
2023/01/15 04:12:26;;;;;;;1.02;0.30;;;;;;;9.31;78.27;99267.44;4161816;28;20080;-69
2023/01/15 04:14:31;;;;;;;0.40;0.40;;;;;;;9.20;78.01;99265.69;4144371;28;20563;-68
2023/01/15 04:16:40;;;;;;;0.35;0.22;;;;;;;9.23;78.14;99275.22;4178504;28;20029;-68
2023/01/15 04:18:44;;;;;;;0.50;0.35;;;;;;;9.20;77.07;99276.06;4145609;28;20073;-68
2023/01/15 04:20:48;;;;;;;1.85;0.30;;;;;;;9.12;77.99;99284.69;4162049;28;20111;-68
2023/01/15 04:22:51;;;;;;;0.30;0.30;;;;;;;9.13;77.77;99294.22;4158869;28;20038;-68
2023/01/15 04:24:54;;;;;;;0.52;0.30;;;;;;;9.12;77.48;99297.66;4160989;28;20042;-69
2023/01/15 04:26:57;;;;;;;0.30;0.30;;;;;;;9.11;77.63;99308.88;4160895;28;20053;-68
2023/01/15 04:29:00;;;;;;;0.30;0.30;;;;;;;9.16;78.01;99304.59;4161458;28;20388;-69
2023/01/15 04:31:03;;;;;;;0.30;0.30;;;;;;;9.07;78.27;99302.84;4163042;28;20044;-69
2023/01/15 04:33:05;;;;;;;0.40;0.40;;;;;;;9.07;78.70;99310.63;4162255;28;20041;-68
2023/01/15 04:35:10;;;;;;;0.28;0.28;;;;;;;9.09;78.74;99317.53;4160420;28;20454;-69
2023/01/15 04:37:12;;;;;;;0.35;0.35;;;;;;;9.22;78.83;99312.38;4160748;28;20487;-69
2023/01/15 04:39:15;;;;;;;0.30;0.30;;;;;;;9.33;77.42;99310.66;4161881;28;20037;-69
2023/01/15 04:45:59;;;;;;;0.28;0.28;;;;;;;9.09;77.64;99314.94;4160871;28;20041;-68
2023/01/15 04:48:04;;;;;;;0.65;0.40;;;;;;;9.09;78.27;99314.94;4161405;28;20132;-68
2023/01/15 04:50:07;;;;;;;;;;;;;;;9.17;76.99;99312.38;4161739;28;20048;-69
2023/01/15 04:52:11;;;;;;;0.22;0.22;;;;;;;9.04;77.30;99316.66;4160642;28;19943;-69
2023/01/15 04:54:15;;;;;;;0.30;0.30;;;;;;;8.98;77.45;99320.97;4161386;28;20037;-68
2023/01/15 04:56:18;;;;;;;0.22;0.22;;;;;;;8.87;77.96;99333.91;4174002;28;20032;-68
2023/01/15 04:58:21;;;;;;;1.45;0.38;;;;;;;8.89;78.39;99332.16;4161165;28;20450;-68
2023/01/15 05:00:24;;;;;;;0.30;0.30;;;;;;;8.97;78.16;99346.03;4162724;28;20045;-69
2023/01/15 05:02:27;;;;;;;0.22;0.22;;;;;;;9.09;77.75;99337.41;4161674;28;20091;-68
2023/01/15 05:04:30;;;;;;;1.38;0.30;;;;;;;9.08;76.94;99336.56;4161190;28;20031;-68
2023/01/15 05:06:34;;;;;;;2.85;0.30;;;;;;;9.02;77.48;99343.44;4162529;28;20530;-69
2023/01/15 05:08:38;;;;;;;1.00;0.60;;;;;;;9.03;77.90;99345.19;4162685;28;20037;-68
2023/01/15 05:10:40;;;;;;;0.30;0.30;;;;;;;8.84;77.92;99339.09;4162339;28;20314;-68
2023/01/15 05:12:43;;;;;;;0.30;0.30;;;;;;;8.70;77.97;99347.69;4162641;28;20059;-69
2023/01/15 05:14:46;;;;;;;0.40;0.30;;;;;;;8.55;78.46;99348.44;4161375;28;20132;-68
2023/01/15 05:16:49;;;;;;;0.20;0.20;;;;;;;8.55;78.55;99348.44;4138861;28;20041;-68
2023/01/15 05:18:54;;;;;;;0.20;0.20;;;;;;;8.49;78.74;99347.56;4162979;28;20450;-68
2023/01/15 05:20:56;;;;;;;0.30;0.30;;;;;;;8.43;78.91;99347.53;4154966;28;20045;-68
2023/01/15 05:22:59;;;;;;;0.60;0.40;;;;;;;8.37;79.07;99345.78;4162588;28;20491;-68
2023/01/15 05:25:04;;;;;;;0.30;0.28;;;;;;;8.27;79.17;99352.59;4161598;28;20046;-69
2023/01/15 05:27:07;;;;;;;0.30;0.30;;;;;;;8.25;79.25;99354.34;4160789;28;20034;-68
2023/01/15 05:29:11;;;;;;;0.10;0.10;;;;;;;8.14;78.91;99363.75;4159022;28;20061;-68
2023/01/15 05:31:15;;;;;;;0.55;0.30;;;;;;;8.13;79.31;99356.84;4161515;28;20038;-68
2023/01/15 05:33:18;;;;;;;0.52;0.40;;;;;;;8.17;79.41;99362.03;4159997;28;20115;-68
2023/01/15 05:35:21;;;;;;;0.35;0.30;;;;;;;8.18;79.23;99358.59;4153276;28;20034;-68
2023/01/15 05:37:24;;;;;;;0.22;0.22;;;;;;;8.17;79.37;99367.22;4158764;28;20045;-68
2023/01/15 05:39:26;;;;;;;0.30;0.30;;;;;;;8.22;79.37;99359.50;4160539;28;20045;-68
2023/01/15 05:41:49;;;;;;;0.20;0.20;;;;;;;8.21;79.08;99360.34;4159331;28;20038;-68
2023/01/15 05:43:53;;;;;;;0.30;0.30;;;;;;;8.08;79.44;99362.00;4159754;28;20420;-68
2023/01/15 05:46:01;;;;;;;1.55;0.35;;;;;;;8.08;78.96;99366.31;4160171;28;20283;-65
2023/01/15 05:48:04;;;;;;;0.38;0.32;;;;;;;8.03;78.85;99367.13;4160297;28;20025;-67
2023/01/15 05:50:07;;;;;;;0.20;0.20;;;;;;;8.00;79.17;99377.47;4160028;28;20483;-67
2023/01/15 05:52:10;;;;;;;0.25;0.25;;;;;;;8.06;79.25;99376.66;4157958;28;20041;-67
2023/01/15 05:54:15;;;;;;;0.25;0.25;;;;;;;8.09;79.24;99384.44;4157383;28;20080;-67
2023/01/15 05:56:17;;;;;;;0.30;0.30;;;;;;;8.07;77.90;99385.28;4158229;28;20083;-66
2023/01/15 05:58:22;;;;;;;2.10;0.40;;;;;;;8.08;77.86;99372.34;4154936;28;20041;-67
2023/01/15 06:00:25;;;;;;;0.30;0.20;;;;;;;8.02;77.48;99369.72;4159975;28;20087;-66
2023/01/15 06:02:30;;;;;;;0.13;0.13;;;;;;;7.92;76.80;99365.34;4161653;28;20487;-67
2023/01/15 06:04:33;;;;;;;3.20;0.30;;;;;;;7.93;76.69;99373.13;4160361;28;20128;-67
2023/01/15 06:06:36;;;;;;;0.25;0.25;;;;;;;7.98;76.84;99368.81;4163957;28;20522;-66
2023/01/15 06:08:39;;;;;;;1.85;0.35;;;;;;;8.03;76.88;99374.91;4158514;28;20054;-67
2023/01/15 06:10:44;;;;;;;0.20;0.20;;;;;;;8.01;76.54;99376.59;4162172;28;20555;-67
2023/01/15 06:12:47;;;;;;;;;;;;;;;8.04;76.44;99380.94;4161463;28;20037;-66
2023/01/15 06:14:51;;;;;;;1.08;0.22;;;;;;;8.02;76.98;99399.03;4162537;28;19928;-66
2023/01/15 06:16:54;;;;;;;0.32;0.20;;;;;;;7.96;76.73;99414.53;4162214;28;20488;-66
2023/01/15 06:19:00;;;;;;;1.52;0.40;;;;;;;7.99;76.61;99421.47;4149275;28;20044;-66
2023/01/15 06:21:04;;;;;;;0.28;0.28;;;;;;;7.88;75.78;99438.63;4158701;28;20041;-66
2023/01/15 06:23:07;;;;;;;0.32;0.32;;;;;;;7.80;75.85;99436.84;4165101;28;21662;-65
2023/01/15 06:25:09;;;;;;;0.30;0.30;;;;;;;7.82;75.56;99429.06;4167700;28;20041;-66
2023/01/15 06:27:12;;;;;;;0.68;0.40;;;;;;;7.83;76.32;99428.22;4155601;28;20136;-67
2023/01/15 06:29:17;;;;;;;0.20;0.20;;;;;;;7.68;74.86;99439.28;4163326;28;20449;-67
2023/01/15 06:31:23;;;;;;;0.40;0.40;;;;;;;7.56;75.70;99454.69;4180511;28;20503;-67
2023/01/15 06:33:26;;;;;;;0.30;0.30;;;;;;;7.47;76.03;99463.22;4164050;28;20076;-66
2023/01/15 06:35:29;;;;;;;0.30;0.30;;;;;;;7.45;75.79;99450.28;4160302;28;20517;-67
2023/01/15 06:37:31;;;;;;;0.40;0.40;;;;;;;7.55;76.10;99437.44;4174344;28;20054;-66
2023/01/15 06:39:34;;;;;;;4.07;0.52;;;;;;;7.60;75.90;99441.81;4163784;28;20416;-67
2023/01/15 06:48:40;;;;;;;0.60;0.60;;;;;;;7.49;76.69;99438.25;4157864;28;20041;-67
2023/01/15 06:50:43;;;;;;;0.30;0.30;;;;;;;7.45;77.08;99464.94;4158840;28;20046;-66
2023/01/15 06:52:46;;;;;;;0.40;0.40;;;;;;;7.41;77.03;99471.78;4165376;28;20492;-66
2023/01/15 06:54:49;;;;;;;0.50;0.45;;;;;;;7.47;77.39;99465.81;4163920;28;20052;-67
2023/01/15 06:56:52;;;;;;;0.30;0.30;;;;;;;7.50;77.23;99463.25;4163339;28;20037;-67
2023/01/15 06:58:55;;;;;;;0.60;0.60;;;;;;;7.53;76.46;99467.59;4160704;28;20084;-66
2023/01/15 07:00:58;;;;;;;0.38;0.38;;;;;;;7.44;76.54;99461.47;4157047;28;20034;-67
2023/01/15 07:03:01;;;;;;;0.50;0.50;;;;;;;7.43;76.36;99477.88;4162511;28;20052;-66
2023/01/15 07:05:06;;;;;;;0.40;0.40;;;;;;;7.37;76.13;99485.53;4164610;28;20033;-67
2023/01/15 07:07:09;;;;;;;0.60;0.60;;;;;;;7.32;76.74;99495.81;4162860;28;20487;-65
2023/01/15 07:09:12;;;;;;;0.40;0.40;;;;;;;7.37;76.85;99503.63;4160298;28;20037;-66
2023/01/15 07:11:16;;;;;;;0.50;0.50;;;;;;;7.33;76.36;99505.31;4162482;28;20064;-66
2023/01/15 07:13:19;;;;;;;2.10;0.50;;;;;;;7.37;76.36;99518.28;4161970;28;20061;-66
2023/01/15 07:15:22;;;;;;;0.93;0.60;;;;;;;7.42;76.42;99532.16;4164371;28;20040;-66
2023/01/15 07:17:24;;;;;;;0.93;0.60;;;;;;;7.42;76.40;99543.34;4164215;28;20038;-66
2023/01/15 07:19:28;;;;;;;0.52;0.52;;;;;;;7.45;76.65;99542.53;4163101;28;20033;-66
2023/01/15 07:21:32;;;;;;;0.68;0.68;;;;;;;7.39;77.01;99552.75;4160017;28;20573;-66
2023/01/15 07:23:35;;;;;;;0.68;0.60;;;;;;;7.31;76.93;99557.84;4162012;28;20068;-66
2023/01/15 07:25:38;;;;;;;0.75;0.68;;;;;;;7.22;76.89;99553.44;4164099;28;20533;-66
2023/01/15 07:27:41;;;;;;;0.50;0.50;;;;;;;7.13;76.72;99556.75;4162857;28;20435;-66
2023/01/15 07:29:44;;;;;;;0.98;0.55;;;;;;;7.07;77.46;99559.28;4162887;28;20431;-66
2023/01/15 07:31:47;;;;;;;1.05;0.60;;;;;;;7.11;77.24;99555.00;4164402;28;20049;-66
2023/01/15 07:33:50;;;;;;;1.13;0.47;;;;;;;7.17;77.03;99560.28;4162018;28;20041;-67
2023/01/15 07:35:53;;;;;;;0.40;0.40;;;;;;;7.21;77.62;99549.09;4163974;28;20492;-67
2023/01/15 07:37:57;;;;;;;0.40;0.40;;;;;;;7.27;76.54;99551.78;4162558;28;20163;-66
2023/01/15 07:40:00;;;;;;;0.43;0.43;;;;;;;7.22;76.28;99556.00;4161140;28;20589;-66
2023/01/15 07:51:28;;;;;;;0.40;0.40;;;;;;;6.80;76.06;99596.78;4160692;28;20049;-66
2023/01/15 07:53:32;;;;;;;0.45;0.40;;;;;;;6.72;75.97;99598.38;4158363;28;20045;-67
2023/01/15 07:55:36;;;;;;;0.85;0.70;;;;;;;6.75;76.64;99594.97;4161293;28;20471;-66
2023/01/15 07:57:40;;;;;;;1.27;0.50;;;;;;;6.75;76.35;99603.59;4161979;28;20045;-66
2023/01/15 07:59:42;;;;;;;1.03;0.70;;;;;;;6.72;76.59;99605.25;4162865;28;20042;-66
2023/01/15 08:01:45;;;;;;;0.60;0.50;;;;;;;6.69;76.05;99598.31;4161845;28;20044;-66
2023/01/15 08:03:49;;;;;;;0.40;0.30;;;;;;;6.70;75.50;99594.00;4162491;28;20069;-66
2023/01/15 08:05:51;;;;;;;0.40;0.40;;;;;;;6.75;75.75;99602.72;4158710;28;20644;-66
2023/01/15 08:07:54;;;;;;;0.55;0.40;;;;;;;6.72;76.25;99603.53;4159450;28;20033;-65
2023/01/15 08:09:58;;;;;;;0.30;0.30;;;;;;;6.71;75.76;99608.69;4157404;28;20061;-66
2023/01/15 08:16:43;;;;;;;0.50;0.50;;;;;;;6.60;75.78;99616.22;4161245;28;20672;-66
2023/01/15 08:18:46;;;;;;;0.52;0.52;;;;;;;6.66;75.83;99612.88;4160419;28;20514;-66
2023/01/15 08:20:49;;;;;;;0.30;0.30;;;;;;;6.71;76.08;99613.84;4159399;28;20045;-66
2023/01/15 08:22:52;;;;;;;0.30;0.30;;;;;;;6.69;75.80;99618.09;4175873;28;20179;-66
2023/01/15 08:24:55;;;;;;;0.30;0.30;;;;;;;6.59;76.24;99630.88;4140188;28;20037;-66
2023/01/15 08:26:59;;;;;;;0.65;0.43;;;;;;;6.65;76.27;99632.69;4161756;28;20533;-66
2023/01/15 08:29:02;;;;;;;0.70;0.50;;;;;;;6.70;76.49;99632.75;4158050;28;20087;-66
2023/01/15 08:31:05;;;;;;;2.40;0.80;;;;;;;6.77;76.05;99638.03;4158945;28;20045;-65
2023/01/15 08:33:08;;;;;;;1.90;0.65;;;;;;;6.74;76.10;99638.00;4159334;28;20045;-66
2023/01/15 08:35:11;;;;;;;2.67;0.82;;;;;;;6.87;76.48;99633.91;4161344;28;20137;-66
2023/01/15 08:37:14;;;;;;;2.22;1.13;;;;;;;6.78;76.07;99639.78;4156465;28;20033;-66
2023/01/15 08:39:17;;;;;;;1.85;0.40;;;;;;;6.84;76.82;99638.16;4160994;28;20033;-68
2023/01/15 08:41:20;;;;;;;1.27;0.55;;;;;;;6.82;76.08;99635.56;4161393;28;20151;-68
2023/01/15 08:43:25;;;;;;;4.20;0.60;;;;;;;6.82;75.93;99640.72;4159437;28;20091;-68
2023/01/15 08:45:27;;;;;;;1.02;0.40;;;;;;;6.88;76.63;99640.81;4157682;28;20068;-68
2023/01/15 08:47:31;;;;;;;1.13;0.70;;;;;;;7.05;76.62;99637.63;4157864;28;20132;-68
2023/01/15 08:49:34;;;;;;;0.88;0.70;;;;;;;7.15;75.85;99639.50;4161192;28;20060;-68
2023/01/15 08:51:37;;;;;;;1.40;0.70;;;;;;;7.22;75.51;99649.06;4158256;28;20037;-68
2023/01/15 08:53:40;;;;;;;0.70;0.40;;;;;;;7.24;76.08;99647.41;4157468;28;20526;-68
2023/01/15 08:55:43;;;;;;;2.47;0.40;;;;;;;7.37;75.56;99645.84;4158786;28;20499;-69
2023/01/15 08:57:46;;;;;;;0.70;0.38;;;;;;;7.30;75.38;99659.53;4160712;28;20046;-68
2023/01/15 08:59:50;;;;;;;0.25;0.20;;;;;;;7.19;75.76;99667.13;4166916;28;20037;-69
2023/01/15 09:01:53;;;;;;;0.85;0.38;;;;;;;7.27;75.49;99670.72;4158427;28;20460;-68
2023/01/15 09:03:57;;;;;;;0.80;0.60;;;;;;;7.10;75.53;99673.03;4157776;28;20041;-68
2023/01/15 09:06:00;;;;;;;0.30;0.30;;;;;;;6.98;75.37;99683.19;4160643;28;20590;-68
2023/01/15 09:08:04;;;;;;;1.40;0.60;;;;;;;6.94;75.54;99692.59;4163293;28;20041;-68
2023/01/15 09:10:08;;;;;;;2.15;0.57;;;;;;;6.97;75.75;99687.47;4162171;28;20033;-68
2023/01/15 09:12:10;;;;;;;0.93;0.70;;;;;;;7.01;75.38;99690.09;4161748;28;20064;-69
2023/01/15 09:14:15;;;;;;;1.83;0.70;;;;;;;6.96;75.18;99696.06;4161541;28;20065;-68
2023/01/15 09:16:39;;;;;;;2.75;0.93;;;;;;;7.01;75.98;99703.91;4161898;28;20136;-68
2023/01/15 09:18:42;;;;;;;1.52;0.80;;;;;;;6.96;75.34;99702.94;4160451;28;20167;-68
2023/01/15 09:20:45;;;;;;;5.32;1.02;;;;;;;6.93;74.39;99711.50;4160421;28;20037;-68
2023/01/15 09:22:48;;;;;;;2.47;0.90;;;;;;;6.92;73.86;99711.47;4162218;28;20419;-68
2023/01/15 09:24:51;;;;;;;5.90;0.80;;;;;;;6.82;73.54;99710.47;4161501;28;20521;-68
2023/01/15 09:26:54;;;;;;;8.25;0.90;;;;;;;6.70;73.38;99713.72;4162396;28;20033;-68
2023/01/15 09:28:57;;;;;;;6.07;2.85;;;;;;;6.67;74.35;99713.63;4161136;28;20071;-68
2023/01/15 09:31:01;;;;;;;4.25;2.15;;;;;;;6.72;73.53;99719.78;4161671;28;20045;-68
2023/01/15 09:33:05;;;;;;;4.20;1.40;;;;;;;6.80;74.57;99723.38;4161174;28;20041;-68
2023/01/15 09:35:09;;;;;;;3.22;1.90;;;;;;;6.86;74.43;99720.00;4161125;28;20045;-69
2023/01/15 09:37:11;;;;;;;4.75;1.30;;;;;;;6.88;74.47;99728.66;4162948;28;20041;-68
2023/01/15 09:39:14;;;;;;;5.53;1.67;;;;;;;6.97;74.73;99733.13;4159231;28;20049;-69
2023/01/15 09:43:46;;;;;;;1.58;0.70;;;;;;;6.99;73.30;99727.13;4161396;28;20125;-68
2023/01/15 09:45:56;;;;;;;3.85;1.50;;;;;;;7.04;73.68;99732.38;4154246;28;20443;-67
2023/01/15 09:48:16;;;;;;;3.15;0.90;;;;;;;7.15;74.23;99738.59;4162410;28;20080;-68
2023/01/15 09:50:35;;;;;;;1.30;0.50;;;;;;;7.23;74.10;99738.72;4158850;28;20120;-68
2023/01/15 09:52:58;;;;;;;0.43;0.43;;;;;;;7.29;73.64;99746.56;4159359;28;20137;-68
2023/01/15 09:55:09;;;;;;;0.60;0.60;;;;;;;7.22;73.50;99749.91;4156864;28;20056;-68
2023/01/15 09:57:15;;;;;;;4.72;0.70;;;;;;;7.31;73.46;99755.19;4162063;28;20053;-68
2023/01/15 09:59:28;;;;;;;1.52;0.65;;;;;;;7.38;72.83;99751.00;4164003;28;20086;-68
2023/01/15 10:01:33;;;;;;;2.08;0.60;;;;;;;7.41;73.68;99753.66;4165206;28;20041;-68
2023/01/15 10:03:42;;;;;;;1.20;0.65;;;;;;;7.38;72.41;99755.31;4163192;28;20111;-67
2023/01/15 10:05:52;;;;;;;2.25;0.73;;;;;;;7.14;72.44;99773.03;4165059;28;20037;-67
2023/01/15 10:08:00;;;;;;;2.67;0.70;;;;;;;7.11;73.23;99767.81;4156858;28;20095;-67
2023/01/15 10:10:07;;;;;;;2.83;0.95;;;;;;;7.08;71.61;99785.88;4160885;28;20041;-69
2023/01/15 10:12:35;;;;;;;6.00;0.95;;;;;;;6.99;71.48;99783.09;4163946;28;20065;-69
2023/01/15 10:14:45;;;;;;;5.40;1.38;;;;;;;7.02;71.75;99783.16;4164388;28;20048;-68
2023/01/15 10:16:48;;;;;;;5.32;0.90;;;;;;;6.97;71.37;99790.84;4163622;28;20045;-68
2023/01/15 10:18:57;;;;;;;6.03;1.20;;;;;;;6.86;71.73;99789.75;4159851;28;20140;-68
2023/01/15 10:21:26;;;;;;;6.60;1.30;;;;;;;6.97;72.20;99796.00;4163839;28;20033;-69
2023/01/15 10:23:35;;;;;;;4.07;1.27;;;;;;;7.01;71.12;99798.63;4163072;28;20045;-69
2023/01/15 10:25:47;;;;;;;4.25;1.00;;;;;;;6.93;70.88;99799.34;4161207;28;20037;-68
2023/01/15 10:27:51;;;;;;;4.82;1.10;;;;;;;6.91;70.66;99805.38;4141241;28;20627;-68